Terminal Aerodrome Forecast
Issued by NWS Binghamton, NY

Home | Current Version | Previous Version | Text Only | Print | Product List | Glossary On
Versions: 1 2 3 4 5 6 7 8 9 10 11 12 13 14 15 16 17 18 19 20 21 22 23 24 25 26 27 28 29 30 31 32 33 34 35 36 37 38 39 40 41 42 43 44 45
000
FTUS41 KBGM 202333
TAFAVP
TAF
KAVP 202333Z 2100/2124 VRB04KT P6SM BKN045
      TEMPO 2100/2104 4SM SHRA OVC025
     FM210500 VRB04KT 4SM -RA BR OVC015
     FM210900 33005KT P6SM OVC010
     FM211500 33012G21KT P6SM BKN018
     FM211700 33013G22KT P6SM SCT050=

USA.gov is the U.S. government's official web portal to all federal, state and local government web resources and services.